Ganlose, Denmark
Current Conditions -  °F | °C
As of 10:20 AM on Friday 31 Oct 2014 (Local Time) from EKRK Reporting Station
Overcast Overcast  
Wind Chill: 50°   Ceiling: 1900
Heat Index: 50°   Visibility: 5mi
Dew Point: 48°   Wind: 12mph
Humidity: 94%   Direction: 150°SSE
Pressure: 30.21"   Gusts: NA
Location:  55.79°N, 12.26°E
Report Text: EKRK 310920Z AUTO 15010KT 8000NDV FEW011/// BKN019///OVC023/// 10/09 Q1023
Loading
Personal Weather Stations






























Interactive Weather Map
Tropical Storm Tracking
New forecast layout! Learn more

10-Day Weather Forecast

Advertisements
Track Severe Weather on mobile